Time;durP1;ratioP1;P1;durP2;ratioP2;P2;SDS_P1;SDS_P2;PMS_P1;PMS_P2;Temp;Humidity;BMP_temperature;BMP_pressure;BME280_temperature;BME280_humidity;BME280_pressure;Samples;Min_cycle;Max_cycle;Signal;HPM_P1;HPM_P2
2021/06/07 00:00:38;;;;;;;5.63;3.03;;;;;;;;;;5045183;28;38553;-79
2021/06/07 00:03:04;;;;;;;5.78;2.97;;;;;;;;;;5030244;28;38639;-79
2021/06/07 00:05:31;;;;;;;5.43;3.05;;;;;;;;;;5065291;28;38087;-82
2021/06/07 00:07:58;;;;;;;6.15;3.42;;;;;;;;;;5042712;28;36561;-79
2021/06/07 00:10:24;;;;;;;5.70;2.72;;;;;;;;;;5033027;28;40046;-81
2021/06/07 00:12:51;;;;;;;4.10;3.08;;;;;;;;;;5040163;28;38285;-79
2021/06/07 00:15:19;;;;;;;3.20;2.88;;;;;;;;;;5034211;28;36246;-80
2021/06/07 00:17:45;;;;;;;3.97;2.90;;;;;;;;;;5037480;28;37082;-79
2021/06/07 00:20:13;;;;;;;4.60;3.33;;;;;;;;;;5062433;28;40275;-80
2021/06/07 00:22:40;;;;;;;4.13;2.72;;;;;;;;;;5035912;28;38643;-80
2021/06/07 00:25:09;;;;;;;4.38;3.22;;;;;;;;;;5032341;28;37965;-79
2021/06/07 00:27:35;;;;;;;5.47;3.20;;;;;;;;;;5061906;28;37352;-80
2021/06/07 00:30:02;;;;;;;5.35;3.17;;;;;;;;;;5072154;28;39513;-79
2021/06/07 00:32:28;;;;;;;5.07;3.08;;;;;;;;;;5062654;27;40574;-80
2021/06/07 00:34:55;;;;;;;6.38;3.05;;;;;;;;;;5058335;28;38785;-80
2021/06/07 00:37:21;;;;;;;7.57;2.90;;;;;;;;;;5063783;27;37533;-80
2021/06/07 00:39:48;;;;;;;6.90;2.92;;;;;;;;;;5065266;28;40282;-80
2021/06/07 00:42:14;;;;;;;3.47;2.80;;;;;;;;;;5037074;28;37877;-80
2021/06/07 00:44:41;;;;;;;6.30;3.10;;;;;;;;;;5077728;27;38519;-80
2021/06/07 00:47:08;;;;;;;4.78;2.75;;;;;;;;;;5057998;27;37102;-80
2021/06/07 00:49:35;;;;;;;5.47;2.90;;;;;;;;;;5049073;28;38877;-79
2021/06/07 00:52:01;;;;;;;5.78;3.13;;;;;;;;;;5061741;27;37004;-81
2021/06/07 00:54:27;;;;;;;8.60;3.25;;;;;;;;;;5054046;27;48632;-81
2021/06/07 00:56:54;;;;;;;6.75;2.92;;;;;;;;;;5066855;27;38983;-82
2021/06/07 00:59:20;;;;;;;6.72;2.65;;;;;;;;;;5056246;28;37836;-82
2021/06/07 01:01:47;;;;;;;4.40;2.88;;;;;;;;;;5056337;28;38763;-79
2021/06/07 01:04:13;;;;;;;5.38;2.67;;;;;;;;;;5039002;27;39393;-80
2021/06/07 01:06:39;;;;;;;7.93;3.22;;;;;;;;;;5034396;27;36040;-82
2021/06/07 01:09:07;;;;;;;6.13;3.03;;;;;;;;;;5032778;28;38649;-82
2021/06/07 01:11:34;;;;;;;3.83;2.83;;;;;;;;;;5062058;28;38903;-79
2021/06/07 01:14:00;;;;;;;4.45;2.58;;;;;;;;;;5037533;28;39119;-79
2021/06/07 01:16:27;;;;;;;5.22;2.67;;;;;;;;;;5045513;28;40552;-79
2021/06/07 01:18:53;;;;;;;4.25;2.90;;;;;;;;;;5055015;28;39172;-79
2021/06/07 01:21:23;;;;;;;5.55;3.00;;;;;;;;;;5058489;27;38781;-80
2021/06/07 01:23:50;;;;;;;5.15;2.80;;;;;;;;;;5050005;28;39457;-79
2021/06/07 01:26:18;;;;;;;3.90;2.92;;;;;;;;;;5051494;27;37612;-80
2021/06/07 01:28:45;;;;;;;6.95;4.15;;;;;;;;;;5067842;27;40524;-81
2021/06/07 01:31:12;;;;;;;7.18;3.58;;;;;;;;;;5061819;27;38185;-80
2021/06/07 01:33:40;;;;;;;3.35;2.97;;;;;;;;;;5053647;28;39340;-79
2021/06/07 01:36:06;;;;;;;3.55;3.25;;;;;;;;;;5047915;27;36267;-82
2021/06/07 01:38:34;;;;;;;4.45;3.08;;;;;;;;;;5054788;27;39255;-81
2021/06/07 01:41:02;;;;;;;3.75;2.90;;;;;;;;;;5051264;27;38487;-80
2021/06/07 01:43:28;;;;;;;4.85;2.95;;;;;;;;;;5046373;28;47062;-81
2021/06/07 01:45:55;;;;;;;3.47;2.90;;;;;;;;;;5055750;27;36750;-80
2021/06/07 01:48:22;;;;;;;6.22;3.45;;;;;;;;;;5055694;27;38946;-82
2021/06/07 01:50:49;;;;;;;6.28;3.45;;;;;;;;;;5070457;27;38750;-82
2021/06/07 01:53:16;;;;;;;5.38;3.72;;;;;;;;;;5055742;27;38163;-82
2021/06/07 01:55:44;;;;;;;7.05;3.55;;;;;;;;;;5057862;28;36998;-82
2021/06/07 01:58:11;;;;;;;5.20;3.33;;;;;;;;;;5059710;27;38821;-81
2021/06/07 02:00:37;;;;;;;4.80;2.92;;;;;;;;;;5053298;28;38130;-84
2021/06/07 02:03:05;;;;;;;5.50;3.35;;;;;;;;;;5059605;27;38126;-84
2021/06/07 02:05:32;;;;;;;5.32;3.40;;;;;;;;;;5058881;27;36734;-83
2021/06/07 02:08:00;;;;;;;6.22;3.70;;;;;;;;;;5053600;28;39955;-82
2021/06/07 02:10:28;;;;;;;5.28;3.63;;;;;;;;;;5063513;27;38896;-79
2021/06/07 02:12:55;;;;;;;8.10;3.58;;;;;;;;;;5056405;28;39008;-82
2021/06/07 02:15:22;;;;;;;10.45;4.28;;;;;;;;;;5053920;27;37352;-79
2021/06/07 02:17:49;;;;;;;9.02;3.97;;;;;;;;;;5051905;28;39577;-79
2021/06/07 02:20:17;;;;;;;4.18;3.50;;;;;;;;;;5054655;27;38683;-79
2021/06/07 02:22:44;;;;;;;4.60;3.28;;;;;;;;;;5062198;27;39286;-80
2021/06/07 02:25:12;;;;;;;4.95;3.70;;;;;;;;;;5057081;27;38242;-77
2021/06/07 02:27:39;;;;;;;4.90;4.05;;;;;;;;;;5061401;28;39819;-81
2021/06/07 02:30:16;;;;;;;7.80;4.00;;;;;;;;;;5054702;27;38899;-81
2021/06/07 02:32:43;;;;;;;7.57;3.60;;;;;;;;;;5035903;28;47417;-80
2021/06/07 02:35:11;;;;;;;5.57;4.05;;;;;;;;;;5055712;28;38588;-81
2021/06/07 02:37:37;;;;;;;5.80;4.00;;;;;;;;;;5065733;28;40913;-80
2021/06/07 02:40:05;;;;;;;5.72;4.10;;;;;;;;;;5068648;28;39659;-83
2021/06/07 02:42:32;;;;;;;4.93;3.92;;;;;;;;;;5031235;28;48959;-81
2021/06/07 02:44:58;;;;;;;6.15;4.90;;;;;;;;;;5065810;28;37352;-82
2021/06/07 02:47:24;;;;;;;5.60;4.35;;;;;;;;;;5038163;28;40202;-80
2021/06/07 02:49:51;;;;;;;5.60;4.50;;;;;;;;;;5065873;28;38024;-80
2021/06/07 02:52:17;;;;;;;7.63;4.35;;;;;;;;;;5066400;28;38181;-81
2021/06/07 02:54:44;;;;;;;9.82;4.68;;;;;;;;;;5028268;28;36372;-81
2021/06/07 02:57:10;;;;;;;6.90;4.45;;;;;;;;;;5032975;28;40013;-81
2021/06/07 02:59:36;;;;;;;7.13;4.43;;;;;;;;;;5032273;28;37956;-81
2021/06/07 03:02:03;;;;;;;6.80;4.72;;;;;;;;;;5026751;28;38840;-82
2021/06/07 03:04:29;;;;;;;6.13;3.95;;;;;;;;;;5066953;28;37487;-81
2021/06/07 03:06:56;;;;;;;7.95;4.47;;;;;;;;;;5035999;28;39737;-81
2021/06/07 03:09:22;;;;;;;6.47;4.50;;;;;;;;;;5064382;28;38373;-83
2021/06/07 03:11:49;;;;;;;7.75;4.88;;;;;;;;;;5030052;28;39319;-80
2021/06/07 03:14:15;;;;;;;7.80;4.07;;;;;;;;;;5035179;28;37919;-80
2021/06/07 03:16:42;;;;;;;6.22;4.95;;;;;;;;;;5063662;27;37747;-82
2021/06/07 03:19:08;;;;;;;6.35;4.57;;;;;;;;;;5055614;28;39964;-83
2021/06/07 03:21:34;;;;;;;8.00;4.95;;;;;;;;;;5068897;28;38665;-82
2021/06/07 03:24:01;;;;;;;5.63;4.18;;;;;;;;;;5031541;28;36724;-80
2021/06/07 03:26:27;;;;;;;4.63;4.10;;;;;;;;;;5055143;28;49219;-80
2021/06/07 03:28:53;;;;;;;7.25;4.40;;;;;;;;;;5051014;27;38930;-80
2021/06/07 03:31:20;;;;;;;6.13;4.18;;;;;;;;;;5057340;28;39163;-80
2021/06/07 03:33:46;;;;;;;6.32;5.70;;;;;;;;;;5048909;27;36610;-82
2021/06/07 03:36:13;;;;;;;7.50;5.28;;;;;;;;;;5056968;28;39858;-79
2021/06/07 03:38:39;;;;;;;7.57;4.95;;;;;;;;;;5052458;27;39227;-80
2021/06/07 03:41:07;;;;;;;7.55;4.72;;;;;;;;;;5062557;28;39589;-80
2021/06/07 03:43:35;;;;;;;5.97;5.35;;;;;;;;;;5050544;28;36856;-83
2021/06/07 03:46:01;;;;;;;5.78;5.07;;;;;;;;;;5067457;27;38941;-81
2021/06/07 03:48:28;;;;;;;7.85;4.90;;;;;;;;;;5043104;28;39554;-81
2021/06/07 03:50:55;;;;;;;6.32;4.85;;;;;;;;;;5046663;27;37670;-81
2021/06/07 03:53:21;;;;;;;6.53;4.75;;;;;;;;;;5045399;28;36557;-80
2021/06/07 03:55:48;;;;;;;7.80;5.30;;;;;;;;;;5059744;27;38946;-79
2021/06/07 03:58:15;;;;;;;10.48;5.03;;;;;;;;;;5056145;27;38224;-80
2021/06/07 04:00:41;;;;;;;9.73;5.38;;;;;;;;;;5046816;28;38873;-80
2021/06/07 04:03:09;;;;;;;5.57;4.47;;;;;;;;;;5045824;28;37175;-79
2021/06/07 04:05:37;;;;;;;6.10;4.80;;;;;;;;;;5059127;28;39615;-82
2021/06/07 04:08:04;;;;;;;5.63;4.95;;;;;;;;;;5054836;27;38765;-81
2021/06/07 04:10:30;;;;;;;6.55;5.20;;;;;;;;;;5055081;28;39377;-79
2021/06/07 04:12:57;;;;;;;9.02;5.15;;;;;;;;;;5073212;27;37269;-79
2021/06/07 04:15:25;;;;;;;7.28;5.10;;;;;;;;;;5050535;27;38690;-80
2021/06/07 04:17:51;;;;;;;9.05;5.55;;;;;;;;;;5055745;28;39113;-81
2021/06/07 04:20:19;;;;;;;6.20;5.40;;;;;;;;;;5052700;28;39416;-80
2021/06/07 04:22:46;;;;;;;6.38;4.60;;;;;;;;;;5056574;27;36421;-81
2021/06/07 04:25:13;;;;;;;6.60;4.88;;;;;;;;;;5054632;28;40085;-80
2021/06/07 04:27:40;;;;;;;6.68;5.00;;;;;;;;;;5084577;27;38411;-81
2021/06/07 04:30:10;;;;;;;7.55;5.43;;;;;;;;;;5050691;28;38268;-80
2021/06/07 04:32:37;;;;;;;9.27;5.43;;;;;;;;;;5058594;27;47941;-81
2021/06/07 04:35:04;;;;;;;8.05;5.45;;;;;;;;;;5057545;28;39054;-81
2021/06/07 04:37:31;;;;;;;8.75;5.22;;;;;;;;;;5053208;28;47586;-81
2021/06/07 04:39:58;;;;;;;7.70;5.47;;;;;;;;;;5054388;27;38036;-81
2021/06/07 04:42:24;;;;;;;6.82;5.03;;;;;;;;;;5050425;27;36768;-81
2021/06/07 04:44:51;;;;;;;9.05;5.78;;;;;;;;;;5065505;28;39252;-81
2021/06/07 04:47:17;;;;;;;9.02;5.63;;;;;;;;;;5066335;28;38968;-81
2021/06/07 04:49:44;;;;;;;11.60;5.90;;;;;;;;;;5058218;28;37495;-82
2021/06/07 04:52:10;;;;;;;7.90;5.25;;;;;;;;;;5050810;27;37413;-82
2021/06/07 04:54:36;;;;;;;11.30;5.68;;;;;;;;;;5052480;28;39380;-81
2021/06/07 04:57:03;;;;;;;6.88;5.10;;;;;;;;;;5057997;28;38576;-82
2021/06/07 04:59:29;;;;;;;11.30;5.93;;;;;;;;;;5071964;27;38915;-83
2021/06/07 05:01:56;;;;;;;6.75;5.15;;;;;;;;;;5056402;28;36951;-82
2021/06/07 05:04:22;;;;;;;8.90;5.05;;;;;;;;;;5055683;27;39050;-82
2021/06/07 05:06:49;;;;;;;5.45;4.45;;;;;;;;;;5058805;28;38612;-81
2021/06/07 05:09:15;;;;;;;5.18;4.22;;;;;;;;;;5058866;27;38312;-80
2021/06/07 05:11:42;;;;;;;5.55;4.00;;;;;;;;;;5050542;28;36866;-80
2021/06/07 05:14:08;;;;;;;7.03;3.97;;;;;;;;;;5051845;28;39472;-81
2021/06/07 05:16:34;;;;;;;6.07;4.30;;;;;;;;;;5054098;28;39409;-81
2021/06/07 05:19:01;;;;;;;4.80;3.90;;;;;;;;;;5057824;27;38927;-81
2021/06/07 05:21:27;;;;;;;6.20;3.72;;;;;;;;;;5059926;27;47921;-81
2021/06/07 05:23:53;;;;;;;5.47;3.90;;;;;;;;;;5058288;27;39027;-80
2021/06/07 05:26:20;;;;;;;3.60;2.78;;;;;;;;;;5059272;27;39042;-80
2021/06/07 05:28:46;;;;;;;4.97;2.90;;;;;;;;;;5051051;28;40068;-80
2021/06/07 05:31:13;;;;;;;4.30;3.08;;;;;;;;;;5045898;27;36630;-80
2021/06/07 05:33:39;;;;;;;5.53;2.97;;;;;;;;;;5032811;28;39875;-80
2021/06/07 05:36:06;;;;;;;4.85;3.08;;;;;;;;;;5033100;27;38663;-80
2021/06/07 05:38:32;;;;;;;7.40;2.88;;;;;;;;;;5040670;27;39166;-79
2021/06/07 05:40:59;;;;;;;3.33;2.47;;;;;;;;;;5044444;28;37734;-80
2021/06/07 05:43:25;;;;;;;4.05;2.10;;;;;;;;;;5033681;27;39011;-79
2021/06/07 05:45:53;;;;;;;4.88;2.03;;;;;;;;;;5050088;27;37513;-80
2021/06/07 05:48:19;;;;;;;5.75;2.30;;;;;;;;;;5037331;28;38971;-79
2021/06/07 05:50:46;;;;;;;3.55;1.63;;;;;;;;;;5066863;28;37437;-80
2021/06/07 05:53:13;;;;;;;3.70;1.55;;;;;;;;;;5067015;28;40174;-80
2021/06/07 05:55:44;;;;;;;3.28;1.38;;;;;;;;;;5037759;28;38584;-80
2021/06/07 05:58:12;;;;;;;5.13;1.60;;;;;;;;;;5086011;27;39337;-79
2021/06/07 06:00:40;;;;;;;4.32;1.77;;;;;;;;;;5057693;27;37156;-80
2021/06/07 06:03:07;;;;;;;5.25;1.67;;;;;;;;;;5069135;27;39395;-78
2021/06/07 06:05:33;;;;;;;3.70;1.60;;;;;;;;;;5058564;28;38569;-78
2021/06/07 06:08:00;;;;;;;5.95;1.70;;;;;;;;;;5058496;27;37765;-79
2021/06/07 06:10:26;;;;;;;4.32;1.83;;;;;;;;;;5061504;27;36747;-80
2021/06/07 06:12:53;;;;;;;2.65;1.67;;;;;;;;;;5056838;28;40987;-79
2021/06/07 06:15:20;;;;;;;3.53;1.65;;;;;;;;;;5055033;28;38448;-79
2021/06/07 06:17:47;;;;;;;2.95;1.63;;;;;;;;;;5053168;28;39678;-79
2021/06/07 06:20:14;;;;;;;2.88;1.73;;;;;;;;;;5057956;28;37598;-81
2021/06/07 06:22:41;;;;;;;3.22;1.75;;;;;;;;;;5069882;27;39764;-81
2021/06/07 06:25:08;;;;;;;4.05;1.67;;;;;;;;;;5071979;27;38745;-80
2021/06/07 06:27:35;;;;;;;5.18;2.03;;;;;;;;;;5043113;27;38182;-82
2021/06/07 06:30:02;;;;;;;5.53;2.40;;;;;;;;;;5041813;28;35139;-80
2021/06/07 06:32:28;;;;;;;2.15;1.60;;;;;;;;;;5042049;28;47308;-81
2021/06/07 06:34:55;;;;;;;6.35;2.03;;;;;;;;;;5048483;28;38995;-80
2021/06/07 06:37:21;;;;;;;4.30;2.00;;;;;;;;;;5060964;27;38437;-81
2021/06/07 06:39:47;;;;;;;2.58;1.50;;;;;;;;;;5054713;28;38923;-79
2021/06/07 06:42:14;;;;;;;3.83;1.98;;;;;;;;;;5059420;27;39090;-82
2021/06/07 06:44:40;;;;;;;4.22;2.10;;;;;;;;;;5060728;27;38192;-83
2021/06/07 06:47:07;;;;;;;6.03;2.50;;;;;;;;;;5045843;27;39326;-84
2021/06/07 06:49:33;;;;;;;2.80;2.50;;;;;;;;;;5036891;28;37328;-82
2021/06/07 06:52:00;;;;;;;6.03;2.03;;;;;;;;;;5037892;28;41102;-84
2021/06/07 06:54:26;;;;;;;4.68;2.30;;;;;;;;;;5039553;27;38484;-84
2021/06/07 06:56:53;;;;;;;6.85;2.67;;;;;;;;;;5045536;28;38655;-83
2021/06/07 06:59:19;;;;;;;8.30;2.55;;;;;;;;;;5041055;28;37049;-84
2021/06/07 07:01:46;;;;;;;3.78;2.20;;;;;;;;;;5047215;28;38735;-83
2021/06/07 07:04:12;;;;;;;5.07;2.90;;;;;;;;;;5052613;27;40438;-83
2021/06/07 07:06:40;;;;;;;3.40;2.03;;;;;;;;;;5058649;28;39863;-84
2021/06/07 07:09:07;;;;;;;4.82;2.22;;;;;;;;;;5074629;28;37352;-85
2021/06/07 07:11:36;;;;;;;6.32;2.08;;;;;;;;;;5049479;28;39332;-84
2021/06/07 07:14:02;;;;;;;2.75;1.92;;;;;;;;;;5062442;27;38784;-83
2021/06/07 07:16:29;;;;;;;4.95;2.40;;;;;;;;;;5041371;28;48731;-81
2021/06/07 07:18:56;;;;;;;6.38;2.28;;;;;;;;;;5060243;27;37671;-83
2021/06/07 07:21:22;;;;;;;7.03;2.10;;;;;;;;;;5057902;27;40366;-83
2021/06/07 07:23:49;;;;;;;4.60;2.13;;;;;;;;;;5077043;28;40418;-84
2021/06/07 07:26:15;;;;;;;4.20;2.10;;;;;;;;;;5052423;28;37035;-82
2021/06/07 07:28:43;;;;;;;4.00;1.92;;;;;;;;;;5064181;28;40171;-82
2021/06/07 07:31:12;;;;;;;5.13;2.33;;;;;;;;;;5059313;28;37848;-85
2021/06/07 07:33:39;;;;;;;3.80;2.20;;;;;;;;;;5043669;28;39452;-82
2021/06/07 07:36:07;;;;;;;2.55;1.50;;;;;;;;;;5075447;28;41345;-82
2021/06/07 07:38:43;;;;;;;2.63;1.42;;;;;;;;;;5078291;28;39788;-83
2021/06/07 07:41:13;;;;;;;4.47;1.98;;;;;;;;;;5039993;28;39641;-82
2021/06/07 07:43:39;;;;;;;2.75;1.70;;;;;;;;;;5046460;28;39946;-83
2021/06/07 07:46:06;;;;;;;4.95;1.70;;;;;;;;;;5073291;27;38018;-82
2021/06/07 07:48:32;;;;;;;3.00;1.70;;;;;;;;;;5036481;28;36994;-83
2021/06/07 07:50:59;;;;;;;2.53;1.60;;;;;;;;;;5066486;28;38353;-83
2021/06/07 07:53:28;;;;;;;2.78;1.80;;;;;;;;;;5043506;28;39682;-81
2021/06/07 07:55:56;;;;;;;4.38;1.92;;;;;;;;;;5040759;28;40397;-80
2021/06/07 07:58:23;;;;;;;3.13;2.00;;;;;;;;;;5064927;28;37154;-84
2021/06/07 08:00:49;;;;;;;3.80;2.30;;;;;;;;;;5040765;28;38726;-82
2021/06/07 08:03:16;;;;;;;3.25;2.15;;;;;;;;;;5042994;28;38783;-81
2021/06/07 08:05:43;;;;;;;4.68;1.95;;;;;;;;;;5045373;28;38616;-81
2021/06/07 08:08:09;;;;;;;3.85;2.08;;;;;;;;;;5033544;27;37657;-83
2021/06/07 08:10:36;;;;;;;3.30;1.80;;;;;;;;;;5033139;28;41215;-81
2021/06/07 08:13:03;;;;;;;7.65;2.22;;;;;;;;;;5038289;28;38465;-79
2021/06/07 08:15:30;;;;;;;6.97;2.10;;;;;;;;;;5067678;27;40024;-80
2021/06/07 08:17:57;;;;;;;8.82;2.00;;;;;;;;;;5074101;28;40942;-82
2021/06/07 08:20:23;;;;;;;3.63;2.22;;;;;;;;;;5035601;28;39762;-80
2021/06/07 08:22:51;;;;;;;6.03;2.78;;;;;;;;;;5040994;28;38468;-81
2021/06/07 08:25:18;;;;;;;6.15;2.30;;;;;;;;;;5040007;28;38980;-86
2021/06/07 08:27:45;;;;;;;4.15;2.15;;;;;;;;;;5041943;28;35735;-81
2021/06/07 08:30:11;;;;;;;3.53;1.80;;;;;;;;;;5034710;28;41007;-81
2021/06/07 08:32:38;;;;;;;4.40;2.00;;;;;;;;;;5071344;28;39236;-81
2021/06/07 08:35:05;;;;;;;4.30;2.33;;;;;;;;;;5066163;28;40041;-84
2021/06/07 08:37:32;;;;;;;4.57;2.10;;;;;;;;;;5041132;28;36864;-80
2021/06/07 08:39:58;;;;;;;8.05;2.47;;;;;;;;;;5043600;28;39340;-81
2021/06/07 08:42:25;;;;;;;2.45;1.70;;;;;;;;;;5036037;28;38127;-81
2021/06/07 08:44:52;;;;;;;4.32;2.00;;;;;;;;;;5064206;28;39239;-80
2021/06/07 08:47:18;;;;;;;2.92;2.15;;;;;;;;;;5060706;27;37260;-80
2021/06/07 08:49:46;;;;;;;4.57;2.22;;;;;;;;;;5062032;28;39780;-80
2021/06/07 08:52:14;;;;;;;5.57;2.00;;;;;;;;;;5070557;28;38585;-80
2021/06/07 08:54:40;;;;;;;4.05;1.88;;;;;;;;;;5042828;28;38300;-79
2021/06/07 08:57:07;;;;;;;3.75;1.90;;;;;;;;;;5031310;27;36795;-82
2021/06/07 08:59:33;;;;;;;2.40;1.50;;;;;;;;;;5075373;28;40883;-81
2021/06/07 09:02:02;;;;;;;4.20;2.10;;;;;;;;;;5031692;28;38792;-80
2021/06/07 09:04:28;;;;;;;5.22;2.42;;;;;;;;;;5052160;28;48189;-82
2021/06/07 09:06:55;;;;;;;2.80;1.75;;;;;;;;;;5033421;28;37131;-82
2021/06/07 09:09:24;;;;;;;3.85;1.88;;;;;;;;;;5070616;28;39741;-82
2021/06/07 09:12:00;;;;;;;3.13;2.28;;;;;;;;;;5072714;28;39193;-81
2021/06/07 09:14:28;;;;;;;3.80;2.22;;;;;;;;;;5059723;27;47766;-81
2021/06/07 09:16:54;;;;;;;3.10;2.05;;;;;;;;;;5057463;28;37479;-80
2021/06/07 09:19:22;;;;;;;8.00;1.95;;;;;;;;;;5060104;27;40025;-80
2021/06/07 09:21:49;;;;;;;6.85;2.58;;;;;;;;;;5064847;28;37430;-79
2021/06/07 09:24:16;;;;;;;3.38;2.10;;;;;;;;;;5056656;27;38474;-81
2021/06/07 09:26:45;;;;;;;3.85;1.98;;;;;;;;;;5060625;28;36280;-81
2021/06/07 09:29:20;;;;;;;4.57;1.95;;;;;;;;;;5051487;27;37152;-83
2021/06/07 09:31:51;;;;;;;3.47;2.03;;;;;;;;;;5071747;28;39205;-80
2021/06/07 09:34:28;;;;;;;2.87;1.87;;;;;;;;;;5058878;28;38706;-81
2021/06/07 09:36:55;;;;;;;4.53;1.90;;;;;;;;;;5057319;28;36598;-81
2021/06/07 09:39:25;;;;;;;7.15;2.30;;;;;;;;;;5057752;27;40001;-80
2021/06/07 09:41:58;;;;;;;3.03;2.00;;;;;;;;;;5049221;28;39955;-79
2021/06/07 09:44:26;;;;;;;2.33;1.45;;;;;;;;;;5048619;28;39217;-80
2021/06/07 09:46:53;;;;;;;5.03;2.25;;;;;;;;;;5052481;28;37709;-80
2021/06/07 09:49:22;;;;;;;3.47;1.88;;;;;;;;;;5039390;28;42530;-80
2021/06/07 09:51:59;;;;;;;6.13;2.22;;;;;;;;;;5052393;28;39394;-81
2021/06/07 09:54:27;;;;;;;5.72;2.30;;;;;;;;;;5058733;27;39091;-82
2021/06/07 09:56:55;;;;;;;3.83;1.92;;;;;;;;;;5065241;28;37665;-78
2021/06/07 09:59:24;;;;;;;2.95;1.80;;;;;;;;;;5073052;27;39260;-79
2021/06/07 10:01:50;;;;;;;2.85;2.10;;;;;;;;;;5079318;28;39403;-80
2021/06/07 10:04:17;;;;;;;4.00;2.25;;;;;;;;;;5052037;27;38527;-81
2021/06/07 10:06:43;;;;;;;5.43;2.15;;;;;;;;;;5058611;27;37911;-81
2021/06/07 10:09:14;;;;;;;7.68;2.38;;;;;;;;;;5049658;28;39148;-81
2021/06/07 10:11:42;;;;;;;4.95;2.00;;;;;;;;;;5043777;28;39145;-79
2021/06/07 10:14:10;;;;;;;3.08;2.15;;;;;;;;;;5068116;28;39107;-82
2021/06/07 10:16:38;;;;;;;4.30;2.03;;;;;;;;;;5068075;28;37950;-79
2021/06/07 10:19:16;;;;;;;3.97;2.13;;;;;;;;;;5070818;28;39152;-80
2021/06/07 10:21:42;;;;;;;3.75;2.45;;;;;;;;;;5031485;28;39508;-82
2021/06/07 10:24:12;;;;;;;2.95;2.00;;;;;;;;;;5030889;28;38529;-82
2021/06/07 10:26:38;;;;;;;4.15;2.63;;;;;;;;;;5037879;28;37375;-83
2021/06/07 10:29:05;;;;;;;5.15;2.30;;;;;;;;;;5031667;28;39931;-84
2021/06/07 10:31:32;;;;;;;4.45;2.67;;;;;;;;;;5047517;28;47545;-81
2021/06/07 10:34:00;;;;;;;2.85;2.05;;;;;;;;;;5063866;28;38818;-82
2021/06/07 10:36:27;;;;;;;5.53;1.90;;;;;;;;;;5054814;28;37406;-83
2021/06/07 10:39:01;;;;;;;4.90;2.10;;;;;;;;;;5053938;28;38901;-83
2021/06/07 10:41:28;;;;;;;4.97;2.33;;;;;;;;;;5058870;28;38552;-83
2021/06/07 10:43:55;;;;;;;4.20;2.60;;;;;;;;;;5059364;28;38687;-86
2021/06/07 10:46:22;;;;;;;4.40;2.20;;;;;;;;;;5057691;27;38189;-84
2021/06/07 10:48:52;;;;;;;4.15;2.25;;;;;;;;;;5068562;28;39971;-84
2021/06/07 10:51:20;;;;;;;6.90;2.10;;;;;;;;;;5058044;28;39348;-83
2021/06/07 10:53:46;;;;;;;2.35;2.15;;;;;;;;;;5059276;28;38981;-83
2021/06/07 10:56:13;;;;;;;5.47;2.65;;;;;;;;;;5035459;28;38353;-83
2021/06/07 10:58:49;;;;;;;2.95;1.85;;;;;;;;;;5034055;28;39125;-82
2021/06/07 11:01:16;;;;;;;6.93;2.10;;;;;;;;;;5062059;28;39474;-83
2021/06/07 11:03:54;;;;;;;4.75;2.58;;;;;;;;;;5046250;28;38422;-81
2021/06/07 11:06:20;;;;;;;4.07;2.45;;;;;;;;;;5072193;27;37068;-82
2021/06/07 11:09:00;;;;;;;3.22;2.88;;;;;;;;;;5076276;28;40619;-83
2021/06/07 11:11:47;;;;;;;6.20;2.60;;;;;;;;;;5063211;28;37169;-83
2021/06/07 11:14:15;;;;;;;4.28;2.80;;;;;;;;;;5063286;28;39133;-83
2021/06/07 11:16:44;;;;;;;6.57;2.70;;;;;;;;;;5040152;28;38201;-83
2021/06/07 11:19:11;;;;;;;6.15;3.00;;;;;;;;;;5063055;28;39101;-81
2021/06/07 11:21:41;;;;;;;3.30;2.67;;;;;;;;;;5055049;28;39814;-83
2021/06/07 11:24:35;;;;;;;5.03;3.05;;;;;;;;;;5065550;27;38300;-83
2021/06/07 11:27:04;;;;;;;5.00;2.78;;;;;;;;;;5075106;27;37027;-83
2021/06/07 11:29:32;;;;;;;5.75;3.10;;;;;;;;;;5055128;28;46278;-83
2021/06/07 11:32:11;;;;;;;3.47;2.38;;;;;;;;;;5088502;28;38815;-81
2021/06/07 11:34:45;;;;;;;3.38;2.60;;;;;;;;;;5050804;28;47348;-82
2021/06/07 11:37:13;;;;;;;4.10;2.63;;;;;;;;;;5057876;27;37939;-80
2021/06/07 11:39:42;;;;;;;5.63;2.85;;;;;;;;;;5063195;28;37959;-82
2021/06/07 11:42:10;;;;;;;6.88;2.63;;;;;;;;;;5042529;28;37533;-81
2021/06/07 11:44:45;;;;;;;4.57;2.80;;;;;;;;;;5051608;28;38332;-82
2021/06/07 11:47:22;;;;;;;3.70;2.47;;;;;;;;;;5060526;28;36606;-82
2021/06/07 11:50:09;;;;;;;3.72;2.90;;;;;;;;;;5067914;28;39175;-81
2021/06/07 11:52:36;;;;;;;3.15;2.50;;;;;;;;;;5028798;28;48204;-83
2021/06/07 11:55:02;;;;;;;6.57;2.50;;;;;;;;;;5051494;28;38899;-82
2021/06/07 11:57:29;;;;;;;3.75;1.98;;;;;;;;;;5041211;28;36793;-81
2021/06/07 12:00:00;;;;;;;3.70;2.30;;;;;;;;;;5033510;28;37497;-80
2021/06/07 12:02:29;;;;;;;3.30;2.20;;;;;;;;;;5051010;28;38623;-82
2021/06/07 12:04:57;;;;;;;3.88;2.42;;;;;;;;;;5058972;28;36830;-81
2021/06/07 12:07:23;;;;;;;3.85;2.00;;;;;;;;;;5048725;28;36499;-80
2021/06/07 12:09:53;;;;;;;5.30;2.72;;;;;;;;;;5064614;28;38976;-81
2021/06/07 12:12:20;;;;;;;2.70;2.17;;;;;;;;;;5060889;28;37476;-81
2021/06/07 12:14:47;;;;;;;3.88;2.70;;;;;;;;;;5050527;28;37783;-80
2021/06/07 12:17:18;;;;;;;6.72;2.80;;;;;;;;;;5053303;28;35977;-79
2021/06/07 12:19:45;;;;;;;;;;;;;;;;;;5059639;27;38934;-81
2021/06/07 12:22:27;;;;;;;6.28;3.35;;;;;;;;;;5052916;27;38360;-80
2021/06/07 12:24:56;;;;;;;4.75;2.97;;;;;;;;;;5059006;28;40253;-81
2021/06/07 12:30:19;;;;;;;3.53;2.15;;;;;;;;;;5080609;28;39880;-83
2021/06/07 12:32:49;;;;;;;4.03;2.38;;;;;;;;;;5069745;28;38957;-82
2021/06/07 12:35:18;;;;;;;3.55;2.42;;;;;;;;;;5057955;28;40274;-82
2021/06/07 12:37:45;;;;;;;3.85;2.53;;;;;;;;;;5053128;28;36938;-82
2021/06/07 12:40:13;;;;;;;3.45;2.20;;;;;;;;;;5064616;28;37821;-80
2021/06/07 12:42:39;;;;;;;4.72;2.58;;;;;;;;;;5053678;28;39287;-80
2021/06/07 12:45:20;;;;;;;4.55;2.60;;;;;;;;;;5054878;28;38840;-82
2021/06/07 12:47:47;;;;;;;6.93;2.35;;;;;;;;;;5055870;28;37771;-80
2021/06/07 12:50:17;;;;;;;5.45;1.80;;;;;;;;;;5064871;27;39157;-81
2021/06/07 12:52:46;;;;;;;2.63;1.58;;;;;;;;;;5054466;28;38646;-81
2021/06/07 12:55:13;;;;;;;5.15;2.45;;;;;;;;;;5053714;27;41132;-81
2021/06/07 12:57:40;;;;;;;5.32;2.17;;;;;;;;;;5062529;28;36778;-82
2021/06/07 13:00:23;;;;;;;5.35;2.90;;;;;;;;;;5063349;28;39171;-81
2021/06/07 13:02:49;;;;;;;4.97;2.30;;;;;;;;;;5060956;27;46642;-81
2021/06/07 13:05:33;;;;;;;3.08;2.40;;;;;;;;;;5054841;27;39891;-82
2021/06/07 13:08:09;;;;;;;4.05;2.53;;;;;;;;;;5053846;28;37318;-82
2021/06/07 13:10:50;;;;;;;3.60;2.30;;;;;;;;;;5055290;28;47349;-80
2021/06/07 13:13:36;;;;;;;4.50;2.05;;;;;;;;;;5059256;27;38689;-82
2021/06/07 13:16:10;;;;;;;3.92;2.08;;;;;;;;;;5061663;27;39963;-83
2021/06/07 13:18:54;;;;;;;6.00;3.08;;;;;;;;;;5059020;28;38154;-82
2021/06/07 13:21:21;;;;;;;2.63;2.40;;;;;;;;;;5058666;27;38714;-81
2021/06/07 13:23:53;;;;;;;3.97;3.10;;;;;;;;;;5054658;27;40218;-83
2021/06/07 13:26:19;;;;;;;6.38;3.28;;;;;;;;;;5054849;27;37559;-82
2021/06/07 13:28:46;;;;;;;2.00;1.80;;;;;;;;;;5043761;28;20053;-81
2021/06/07 13:31:13;;;;;;;2.67;2.05;;;;;;;;;;5069979;27;38643;-81
2021/06/07 13:33:40;;;;;;;2.40;1.55;;;;;;;;;;5064878;28;37928;-80
2021/06/07 13:36:08;;;;;;;3.53;2.20;;;;;;;;;;5062137;27;38086;-80
2021/06/07 13:38:41;;;;;;;2.80;2.20;;;;;;;;;;5062042;28;35827;-83
2021/06/07 13:41:14;;;;;;;5.90;2.35;;;;;;;;;;5053574;28;38382;-81
2021/06/07 13:43:41;;;;;;;5.57;3.40;;;;;;;;;;5046556;28;37390;-81
2021/06/07 13:46:22;;;;;;;8.02;3.30;;;;;;;;;;5056256;27;38214;-82
2021/06/07 13:48:48;;;;;;;5.03;2.70;;;;;;;;;;5055478;28;37212;-80
2021/06/07 13:51:15;;;;;;;3.55;1.70;;;;;;;;;;5057559;28;39695;-81
2021/06/07 13:53:42;;;;;;;5.68;2.22;;;;;;;;;;5079586;28;40617;-80
2021/06/07 13:56:10;;;;;;;4.65;2.42;;;;;;;;;;5054452;28;38953;-81
2021/06/07 13:58:40;;;;;;;4.00;2.38;;;;;;;;;;5072173;27;37960;-80
2021/06/07 14:01:07;;;;;;;4.35;2.10;;;;;;;;;;5052893;27;38779;-80
2021/06/07 14:03:35;;;;;;;3.55;1.95;;;;;;;;;;5047997;28;40544;-80
2021/06/07 14:06:03;;;;;;;3.03;1.70;;;;;;;;;;5059424;28;39925;-80
2021/06/07 14:08:31;;;;;;;2.63;1.83;;;;;;;;;;5061007;28;49116;-81
2021/06/07 14:10:59;;;;;;;3.97;1.77;;;;;;;;;;5053320;28;39905;-81
2021/06/07 14:13:26;;;;;;;2.05;1.23;;;;;;;;;;5067726;28;39193;-80
2021/06/07 14:15:53;;;;;;;3.38;1.70;;;;;;;;;;5058396;28;40544;-80
2021/06/07 14:18:20;;;;;;;3.38;1.67;;;;;;;;;;5055226;27;37689;-80
2021/06/07 14:20:48;;;;;;;2.50;1.98;;;;;;;;;;5071725;27;39506;-80
2021/06/07 14:26:05;;;;;;;5.85;1.45;;;;;;;;;;5057536;27;38992;-80
2021/06/07 14:28:31;;;;;;;3.60;1.95;;;;;;;;;;5052723;28;37433;-84
2021/06/07 14:30:58;;;;;;;1.80;1.30;;;;;;;;;;5043005;28;41457;-81
2021/06/07 14:33:24;;;;;;;2.65;1.50;;;;;;;;;;5060425;28;38851;-82
2021/06/07 14:35:51;;;;;;;5.88;1.30;;;;;;;;;;5061168;27;39952;-81
2021/06/07 14:38:17;;;;;;;2.35;1.50;;;;;;;;;;5065423;28;37455;-80
2021/06/07 14:40:44;;;;;;;2.05;1.63;;;;;;;;;;5060519;28;41642;-81
2021/06/07 14:43:11;;;;;;;1.75;1.48;;;;;;;;;;5057825;28;40235;-82
2021/06/07 14:45:39;;;;;;;1.98;1.30;;;;;;;;;;5055461;27;40355;-81
2021/06/07 14:48:06;;;;;;;2.10;1.30;;;;;;;;;;5023012;28;37273;-80
2021/06/07 14:50:32;;;;;;;4.78;1.58;;;;;;;;;;5063921;27;38814;-82
2021/06/07 14:52:59;;;;;;;2.55;1.00;;;;;;;;;;5066349;28;37688;-80